Time;durP1;ratioP1;P1;durP2;ratioP2;P2;SDS_P1;SDS_P2;PMS_P1;PMS_P2;Temp;Humidity;BMP_temperature;BMP_pressure;BME280_temperature;BME280_humidity;BME280_pressure;Samples;Min_cycle;Max_cycle;Signal;HPM_P1;HPM_P2
2022/11/14 00:00:30;;;;;;;68.18;39.20;;;;;;;;;;5102568;28;20111;-76
2022/11/14 00:02:59;;;;;;;66.15;38.47;;;;;;;;;;5101940;28;20028;-76
2022/11/14 00:05:25;;;;;;;66.15;40.03;;;;;;;;;;5100838;28;20071;-77
2022/11/14 00:07:51;;;;;;;69.63;38.88;;;;;;;;;;5099090;28;20028;-75
2022/11/14 00:10:17;;;;;;;67.95;38.95;;;;;;;;;;5099917;28;20048;-76
2022/11/14 00:12:43;;;;;;;66.88;39.55;;;;;;;;;;5099541;28;20031;-76
2022/11/14 00:15:10;;;;;;;70.18;39.92;;;;;;;;;;5102841;28;20488;-75
2022/11/14 00:17:36;;;;;;;68.95;40.22;;;;;;;;;;5087170;28;20507;-76
2022/11/14 00:20:02;;;;;;;69.00;39.58;;;;;;;;;;5103574;28;20035;-76
2022/11/14 00:22:28;;;;;;;69.40;39.45;;;;;;;;;;5086232;28;20160;-76
2022/11/14 00:24:54;;;;;;;69.07;38.97;;;;;;;;;;5102671;28;20020;-76
2022/11/14 00:27:20;;;;;;;67.53;38.67;;;;;;;;;;5102769;28;20393;-76
2022/11/14 00:29:46;;;;;;;76.85;41.15;;;;;;;;;;5102837;28;20090;-76
2022/11/14 00:32:12;;;;;;;69.88;40.85;;;;;;;;;;5105427;28;20076;-77
2022/11/14 00:34:38;;;;;;;68.50;40.38;;;;;;;;;;5106133;28;20509;-75
2022/11/14 00:37:04;;;;;;;71.15;40.30;;;;;;;;;;5112386;28;20031;-76
2022/11/14 00:39:30;;;;;;;73.63;40.60;;;;;;;;;;5112188;28;20338;-75
2022/11/14 00:41:56;;;;;;;69.30;41.20;;;;;;;;;;5114688;28;20019;-75
2022/11/14 00:44:22;;;;;;;66.90;38.30;;;;;;;;;;5114842;28;20031;-76
2022/11/14 00:46:48;;;;;;;71.60;39.95;;;;;;;;;;5090479;28;20085;-75
2022/11/14 00:49:14;;;;;;;71.57;40.38;;;;;;;;;;5088391;28;20028;-75
2022/11/14 00:51:40;;;;;;;73.90;42.60;;;;;;;;;;5090616;28;20024;-75
2022/11/14 00:54:06;;;;;;;74.32;42.40;;;;;;;;;;5108833;28;20434;-76
2022/11/14 00:56:32;;;;;;;76.35;41.13;;;;;;;;;;5106435;28;20039;-75
2022/11/14 00:58:58;;;;;;;72.75;40.40;;;;;;;;;;5095246;28;20095;-76
2022/11/14 01:01:24;;;;;;;77.18;41.63;;;;;;;;;;5093033;28;20085;-75
2022/11/14 01:03:51;;;;;;;72.32;40.45;;;;;;;;;;5093183;28;20024;-76
2022/11/14 01:06:17;;;;;;;83.38;42.67;;;;;;;;;;5093313;28;20035;-76
2022/11/14 01:08:43;;;;;;;75.28;41.03;;;;;;;;;;5093602;28;20153;-75
2022/11/14 01:11:11;;;;;;;73.28;40.70;;;;;;;;;;5075731;28;20057;-74
2022/11/14 01:13:37;;;;;;;75.55;41.53;;;;;;;;;;5075871;28;20024;-77
2022/11/14 01:16:03;;;;;;;74.43;41.95;;;;;;;;;;5093707;28;20093;-75
2022/11/14 01:18:29;;;;;;;81.32;40.83;;;;;;;;;;5093928;28;20051;-75
2022/11/14 01:20:55;;;;;;;77.57;40.72;;;;;;;;;;5093589;28;20020;-77
2022/11/14 01:23:21;;;;;;;74.25;42.20;;;;;;;;;;5093175;28;20024;-75
2022/11/14 01:25:47;;;;;;;81.80;42.45;;;;;;;;;;5093326;28;20035;-76
2022/11/14 01:28:15;;;;;;;78.60;44.47;;;;;;;;;;5094337;28;20028;-75
2022/11/14 01:30:41;;;;;;;83.70;43.70;;;;;;;;;;5093840;28;20153;-76
2022/11/14 01:33:08;;;;;;;77.82;42.25;;;;;;;;;;5093986;28;20333;-76
2022/11/14 01:35:34;;;;;;;77.85;42.75;;;;;;;;;;5094197;28;20028;-75
2022/11/14 01:38:01;;;;;;;73.18;42.03;;;;;;;;;;5076082;28;20081;-75
2022/11/14 01:40:27;;;;;;;79.75;42.60;;;;;;;;;;5094652;28;20408;-75
2022/11/14 01:43:21;;;;;;;80.97;43.65;;;;;;;;;;5076607;28;20024;-74
2022/11/14 01:45:57;;;;;;;80.28;42.80;;;;;;;;;;5094750;28;20054;-78
2022/11/14 01:48:26;;;;;;;78.93;41.50;;;;;;;;;;5076031;28;20016;-75
2022/11/14 01:50:55;;;;;;;81.70;42.88;;;;;;;;;;5096803;28;20420;-76
2022/11/14 01:53:21;;;;;;;81.35;41.80;;;;;;;;;;5077095;28;20024;-76
2022/11/14 01:55:47;;;;;;;82.63;43.17;;;;;;;;;;5094931;28;20016;-75
2022/11/14 01:58:13;;;;;;;84.57;42.88;;;;;;;;;;5094941;28;20146;-75
2022/11/14 02:00:39;;;;;;;83.25;42.47;;;;;;;;;;5094903;28;20020;-75
2022/11/14 02:03:05;;;;;;;86.57;44.65;;;;;;;;;;5095093;28;20032;-76
2022/11/14 02:05:31;;;;;;;80.10;43.42;;;;;;;;;;5094513;28;20135;-76
2022/11/14 02:07:58;;;;;;;85.82;44.15;;;;;;;;;;5077183;28;20082;-75
2022/11/14 02:10:24;;;;;;;91.90;44.35;;;;;;;;;;5095433;28;20054;-76
2022/11/14 02:12:50;;;;;;;87.03;45.03;;;;;;;;;;5077804;28;20498;-76
2022/11/14 02:15:16;;;;;;;92.57;44.85;;;;;;;;;;5102369;28;20066;-76
2022/11/14 02:17:43;;;;;;;91.88;46.10;;;;;;;;;;5119429;27;20040;-76
2022/11/14 02:20:09;;;;;;;91.00;46.35;;;;;;;;;;5116835;28;20039;-76
2022/11/14 02:22:35;;;;;;;86.05;43.47;;;;;;;;;;5098916;28;20024;-76
2022/11/14 02:25:01;;;;;;;79.07;44.17;;;;;;;;;;5105911;28;20024;-75
2022/11/14 02:27:27;;;;;;;90.95;46.40;;;;;;;;;;5102637;28;20039;-76
2022/11/14 02:29:53;;;;;;;83.97;44.65;;;;;;;;;;5102171;28;20465;-75
2022/11/14 02:32:19;;;;;;;87.25;45.53;;;;;;;;;;5089277;28;20054;-74
2022/11/14 02:34:45;;;;;;;86.07;44.97;;;;;;;;;;5100256;28;20082;-75
2022/11/14 02:37:11;;;;;;;85.63;44.35;;;;;;;;;;5119829;27;20048;-75
2022/11/14 02:39:37;;;;;;;83.10;45.38;;;;;;;;;;5102448;28;20043;-75
2022/11/14 02:42:03;;;;;;;90.95;47.10;;;;;;;;;;5119719;27;20036;-74
2022/11/14 02:44:29;;;;;;;81.35;45.25;;;;;;;;;;5098161;28;20032;-75
2022/11/14 02:46:55;;;;;;;90.97;46.22;;;;;;;;;;5114372;28;20020;-75
2022/11/14 02:49:21;;;;;;;89.28;45.97;;;;;;;;;;5102990;28;20617;-75
2022/11/14 02:51:47;;;;;;;91.00;47.80;;;;;;;;;;5116366;28;20061;-76
2022/11/14 02:54:13;;;;;;;90.22;46.40;;;;;;;;;;5117349;28;20024;-75
2022/11/14 02:56:39;;;;;;;101.25;47.50;;;;;;;;;;5118103;28;20054;-76
2022/11/14 02:59:05;;;;;;;86.03;45.88;;;;;;;;;;5118089;28;20028;-76
2022/11/14 03:01:31;;;;;;;91.50;45.42;;;;;;;;;;5111499;28;20036;-76
2022/11/14 03:03:57;;;;;;;91.43;48.72;;;;;;;;;;5097348;28;20477;-74
2022/11/14 03:06:23;;;;;;;86.60;44.10;;;;;;;;;;5096828;28;20380;-76
2022/11/14 03:08:49;;;;;;;85.40;44.97;;;;;;;;;;5097057;28;20044;-74
2022/11/14 03:11:15;;;;;;;88.45;45.75;;;;;;;;;;5078719;28;20043;-76
2022/11/14 03:13:41;;;;;;;83.75;45.28;;;;;;;;;;5082110;28;20048;-76
2022/11/14 03:16:08;;;;;;;88.97;47.05;;;;;;;;;;5097972;28;20101;-74
2022/11/14 03:18:34;;;;;;;92.30;46.40;;;;;;;;;;5079239;28;20493;-75
2022/11/14 03:21:10;;;;;;;94.00;47.33;;;;;;;;;;5098018;28;20033;-75
2022/11/14 03:23:36;;;;;;;87.97;46.50;;;;;;;;;;5098823;28;20481;-75
2022/11/14 03:26:04;;;;;;;87.13;46.22;;;;;;;;;;5097351;28;20057;-75
2022/11/14 03:28:30;;;;;;;90.28;45.67;;;;;;;;;;5080047;28;20095;-75
2022/11/14 03:30:56;;;;;;;91.15;47.85;;;;;;;;;;5081535;28;20097;-76
2022/11/14 03:33:22;;;;;;;95.55;47.50;;;;;;;;;;5099253;28;20028;-76
2022/11/14 03:35:49;;;;;;;89.35;47.28;;;;;;;;;;5099367;28;20028;-75
2022/11/14 03:38:15;;;;;;;102.95;49.88;;;;;;;;;;5081466;28;20016;-75
2022/11/14 03:40:42;;;;;;;93.07;46.88;;;;;;;;;;5099483;28;20027;-76
2022/11/14 03:43:07;;;;;;;89.40;47.50;;;;;;;;;;5101065;28;20039;-76
2022/11/14 03:45:35;;;;;;;95.07;47.25;;;;;;;;;;5105014;28;20031;-75
2022/11/14 03:48:01;;;;;;;89.13;47.05;;;;;;;;;;5109605;28;20057;-75
2022/11/14 03:50:27;;;;;;;97.00;49.63;;;;;;;;;;5110406;28;20032;-74
2022/11/14 03:52:53;;;;;;;100.25;48.65;;;;;;;;;;5110611;28;20028;-76
2022/11/14 03:55:19;;;;;;;95.10;48.67;;;;;;;;;;5110543;28;20066;-74
2022/11/14 03:57:45;;;;;;;88.03;46.97;;;;;;;;;;5110006;28;20028;-76
2022/11/14 04:00:11;;;;;;;98.45;46.90;;;;;;;;;;5108316;28;20076;-76
2022/11/14 04:02:37;;;;;;;90.20;48.05;;;;;;;;;;5113083;28;20107;-75
2022/11/14 04:05:03;;;;;;;94.00;47.97;;;;;;;;;;5113000;28;20021;-74
2022/11/14 04:07:29;;;;;;;98.97;48.55;;;;;;;;;;5105405;28;20056;-76
2022/11/14 04:09:55;;;;;;;95.45;49.78;;;;;;;;;;5097223;28;20039;-74
2022/11/14 04:12:21;;;;;;;93.78;49.22;;;;;;;;;;5097096;28;20153;-74
2022/11/14 04:14:47;;;;;;;97.40;49.47;;;;;;;;;;5099797;28;20028;-76
2022/11/14 04:17:13;;;;;;;101.55;50.13;;;;;;;;;;5090972;28;20034;-76
2022/11/14 04:19:39;;;;;;;93.28;47.95;;;;;;;;;;5090508;28;20055;-76
2022/11/14 04:22:05;;;;;;;91.70;45.78;;;;;;;;;;5103549;28;20024;-76
2022/11/14 04:24:31;;;;;;;97.97;50.33;;;;;;;;;;5097103;28;20024;-76
2022/11/14 04:26:57;;;;;;;94.72;48.00;;;;;;;;;;5077464;28;20080;-76
2022/11/14 04:29:23;;;;;;;90.38;45.95;;;;;;;;;;5095877;28;20043;-75
2022/11/14 04:31:49;;;;;;;92.20;48.17;;;;;;;;;;5095319;28;20042;-75
2022/11/14 04:34:15;;;;;;;91.03;46.75;;;;;;;;;;5095002;28;20030;-75
2022/11/14 04:36:41;;;;;;;92.35;48.92;;;;;;;;;;5094812;28;20034;-75
2022/11/14 04:39:07;;;;;;;95.35;48.95;;;;;;;;;;5095040;28;20091;-75
2022/11/14 04:41:33;;;;;;;93.57;48.42;;;;;;;;;;5093508;28;20020;-75
2022/11/14 04:43:59;;;;;;;93.28;46.40;;;;;;;;;;5077622;28;20587;-74
2022/11/14 04:46:25;;;;;;;93.22;48.20;;;;;;;;;;5096178;28;20480;-75
2022/11/14 04:48:51;;;;;;;90.82;47.85;;;;;;;;;;5094904;28;20064;-75
2022/11/14 04:51:17;;;;;;;99.63;50.45;;;;;;;;;;5095931;28;20035;-75
2022/11/14 04:53:43;;;;;;;92.10;47.30;;;;;;;;;;5095541;28;20149;-75
2022/11/14 04:56:09;;;;;;;89.45;46.80;;;;;;;;;;5095804;28;20023;-75
2022/11/14 04:58:35;;;;;;;92.90;47.10;;;;;;;;;;5077275;28;20484;-75
2022/11/14 05:01:07;;;;;;;89.95;46.60;;;;;;;;;;5096874;28;20064;-75
2022/11/14 05:03:33;;;;;;;93.93;47.15;;;;;;;;;;5100588;28;20027;-75
2022/11/14 05:06:02;;;;;;;93.75;47.97;;;;;;;;;;5115949;27;20279;-76
2022/11/14 05:08:28;;;;;;;97.93;48.60;;;;;;;;;;5117903;27;20012;-76
2022/11/14 05:10:54;;;;;;;89.18;47.10;;;;;;;;;;5117638;27;20032;-76
2022/11/14 05:13:20;;;;;;;88.95;45.60;;;;;;;;;;5117118;27;20088;-77
2022/11/14 05:15:46;;;;;;;93.43;47.47;;;;;;;;;;5110105;28;20393;-74
2022/11/14 05:18:12;;;;;;;95.57;47.53;;;;;;;;;;5096466;28;20028;-76
2022/11/14 05:20:38;;;;;;;89.22;45.22;;;;;;;;;;5096764;28;20030;-74
2022/11/14 05:23:04;;;;;;;92.90;45.67;;;;;;;;;;5094838;28;20100;-75
2022/11/14 05:25:30;;;;;;;87.00;44.72;;;;;;;;;;5094980;28;20384;-75
2022/11/14 05:27:56;;;;;;;87.70;46.58;;;;;;;;;;5095448;28;20028;-75
2022/11/14 05:30:22;;;;;;;90.55;46.40;;;;;;;;;;5077354;28;20111;-75
2022/11/14 05:32:48;;;;;;;93.20;47.90;;;;;;;;;;5095601;28;20046;-76
2022/11/14 05:35:14;;;;;;;91.60;48.33;;;;;;;;;;5077350;28;20028;-75
2022/11/14 05:37:40;;;;;;;92.35;47.25;;;;;;;;;;5076845;28;20036;-75
2022/11/14 05:40:06;;;;;;;90.25;46.25;;;;;;;;;;5095122;28;20031;-75
2022/11/14 05:42:32;;;;;;;93.40;48.67;;;;;;;;;;5077879;28;20024;-75
2022/11/14 05:44:58;;;;;;;93.65;49.33;;;;;;;;;;5076909;28;20473;-75
2022/11/14 05:47:24;;;;;;;95.05;48.47;;;;;;;;;;5094650;28;20028;-75
2022/11/14 05:49:50;;;;;;;97.57;48.55;;;;;;;;;;5094951;28;20055;-75
2022/11/14 05:52:16;;;;;;;101.22;50.38;;;;;;;;;;5079044;28;20027;-75
2022/11/14 05:54:42;;;;;;;95.50;47.38;;;;;;;;;;5098779;28;20290;-75
2022/11/14 05:57:08;;;;;;;102.70;49.83;;;;;;;;;;5098204;28;20024;-75
2022/11/14 05:59:34;;;;;;;100.22;50.17;;;;;;;;;;5099652;28;20479;-75
2022/11/14 06:01:59;;;;;;;105.60;51.60;;;;;;;;;;5098936;28;20388;-75
2022/11/14 06:04:26;;;;;;;96.10;49.75;;;;;;;;;;5098967;28;20035;-76
2022/11/14 06:06:52;;;;;;;95.63;47.88;;;;;;;;;;5098993;28;20045;-76
2022/11/14 06:09:18;;;;;;;93.45;49.28;;;;;;;;;;5100157;28;20166;-75
2022/11/14 06:11:43;;;;;;;99.88;49.92;;;;;;;;;;5080997;28;20028;-76
2022/11/14 06:14:10;;;;;;;101.72;50.22;;;;;;;;;;5098980;28;20389;-76
2022/11/14 06:16:35;;;;;;;100.50;50.53;;;;;;;;;;5098523;28;20024;-75
2022/11/14 06:19:02;;;;;;;101.25;50.65;;;;;;;;;;5099831;28;20357;-77
2022/11/14 06:21:28;;;;;;;99.15;51.47;;;;;;;;;;5100499;28;20012;-76
2022/11/14 06:23:54;;;;;;;104.00;52.30;;;;;;;;;;5100431;28;20107;-75
2022/11/14 06:26:22;;;;;;;109.95;52.28;;;;;;;;;;5091177;28;20036;-77
2022/11/14 06:28:49;;;;;;;101.97;50.38;;;;;;;;;;5119984;27;20077;-75
2022/11/14 06:31:15;;;;;;;103.30;50.92;;;;;;;;;;5085815;28;20028;-75
2022/11/14 06:33:41;;;;;;;106.80;50.15;;;;;;;;;;5106272;28;20088;-76
2022/11/14 06:36:07;;;;;;;104.75;52.33;;;;;;;;;;5087590;28;20040;-75
2022/11/14 06:38:34;;;;;;;103.60;50.55;;;;;;;;;;5101593;28;20031;-75
2022/11/14 06:41:04;;;;;;;106.45;51.17;;;;;;;;;;5081251;28;20087;-75
2022/11/14 06:43:34;;;;;;;106.90;51.22;;;;;;;;;;5103746;28;20043;-75
2022/11/14 06:46:00;;;;;;;103.38;51.63;;;;;;;;;;5101221;28;20095;-76
2022/11/14 06:48:25;;;;;;;99.45;49.10;;;;;;;;;;5101076;28;20047;-75
2022/11/14 06:50:55;;;;;;;112.00;48.88;;;;;;;;;;5101649;28;20021;-75
2022/11/14 06:53:21;;;;;;;99.82;49.97;;;;;;;;;;5081320;28;20042;-75
2022/11/14 06:55:54;;;;;;;98.57;49.72;;;;;;;;;;5098805;28;20047;-75
2022/11/14 06:58:20;;;;;;;107.10;49.60;;;;;;;;;;5098560;28;20013;-76
2022/11/14 07:00:46;;;;;;;101.93;48.38;;;;;;;;;;5101354;28;20028;-75
2022/11/14 07:03:12;;;;;;;103.95;50.20;;;;;;;;;;5100867;28;20022;-75
2022/11/14 07:05:38;;;;;;;106.03;50.05;;;;;;;;;;5088982;28;20024;-74
2022/11/14 07:08:04;;;;;;;102.07;49.92;;;;;;;;;;5090196;28;20032;-75
2022/11/14 07:10:30;;;;;;;95.22;47.80;;;;;;;;;;5113627;28;20024;-77
2022/11/14 07:12:56;;;;;;;103.85;51.05;;;;;;;;;;5114707;28;20032;-75
2022/11/14 07:15:22;;;;;;;102.50;50.60;;;;;;;;;;5117062;27;20032;-77
2022/11/14 07:17:47;;;;;;;104.38;49.55;;;;;;;;;;5118204;27;20052;-77
2022/11/14 07:20:14;;;;;;;105.93;51.20;;;;;;;;;;5118672;27;20024;-77
2022/11/14 07:22:40;;;;;;;103.88;49.85;;;;;;;;;;5117807;28;20039;-77
2022/11/14 07:25:06;;;;;;;101.82;50.63;;;;;;;;;;5082579;28;20046;-75
2022/11/14 07:27:32;;;;;;;112.80;53.00;;;;;;;;;;5082055;28;20032;-75
2022/11/14 07:29:58;;;;;;;99.95;49.88;;;;;;;;;;5101888;28;20049;-74
2022/11/14 07:32:24;;;;;;;107.32;52.42;;;;;;;;;;5099323;28;20147;-77
2022/11/14 07:34:50;;;;;;;106.28;50.15;;;;;;;;;;5078339;28;20032;-76
2022/11/14 07:37:16;;;;;;;111.60;52.60;;;;;;;;;;5095713;28;20032;-76
2022/11/14 07:39:42;;;;;;;107.00;51.47;;;;;;;;;;5078127;28;20103;-76
2022/11/14 07:42:08;;;;;;;105.78;51.78;;;;;;;;;;5080094;28;20024;-76
2022/11/14 07:44:34;;;;;;;113.57;53.72;;;;;;;;;;5078035;28;20086;-76
2022/11/14 07:47:00;;;;;;;115.80;52.25;;;;;;;;;;5081474;28;20032;-75
2022/11/14 07:49:26;;;;;;;113.72;53.70;;;;;;;;;;5098865;28;20059;-76
2022/11/14 07:51:52;;;;;;;112.53;52.35;;;;;;;;;;5097036;28;20027;-76
2022/11/14 07:54:18;;;;;;;112.20;51.80;;;;;;;;;;5077803;28;20504;-77
2022/11/14 07:56:44;;;;;;;112.55;52.67;;;;;;;;;;5097207;28;20054;-75
2022/11/14 07:59:10;;;;;;;116.47;52.13;;;;;;;;;;5099555;28;20020;-75
2022/11/14 08:01:36;;;;;;;115.15;53.33;;;;;;;;;;5103855;28;20035;-76
2022/11/14 08:04:02;;;;;;;110.20;53.28;;;;;;;;;;5103709;28;20038;-75
2022/11/14 08:06:28;;;;;;;112.32;55.08;;;;;;;;;;5097067;28;20560;-75
2022/11/14 08:08:54;;;;;;;117.30;53.58;;;;;;;;;;5101361;28;20028;-76
2022/11/14 08:11:46;;;;;;;122.57;56.40;;;;;;;;;;5083508;28;20099;-75
2022/11/14 08:14:06;;;;;;;111.10;53.40;;;;;;;;;;5100543;28;20042;-75
2022/11/14 08:16:32;;;;;;;122.90;55.35;;;;;;;;;;5095143;28;20047;-76
2022/11/14 08:18:58;;;;;;;116.53;55.85;;;;;;;;;;5076099;28;20480;-75
2022/11/14 08:21:23;;;;;;;111.78;53.35;;;;;;;;;;5075951;28;20115;-76
2022/11/14 08:23:49;;;;;;;120.07;55.15;;;;;;;;;;5094074;28;20020;-75
2022/11/14 08:26:15;;;;;;;110.53;53.00;;;;;;;;;;5094108;28;20023;-75
2022/11/14 08:28:41;;;;;;;113.55;53.78;;;;;;;;;;5094208;28;20020;-75
2022/11/14 08:31:09;;;;;;;116.18;56.22;;;;;;;;;;5093851;28;20477;-75
2022/11/14 08:33:35;;;;;;;118.13;55.08;;;;;;;;;;5093991;28;20496;-75
2022/11/14 08:36:05;;;;;;;113.53;53.90;;;;;;;;;;5075576;28;20395;-76
2022/11/14 08:38:31;;;;;;;117.82;54.10;;;;;;;;;;5097008;28;20039;-75
2022/11/14 08:40:58;;;;;;;112.65;52.88;;;;;;;;;;5094106;28;20039;-76
2022/11/14 08:43:24;;;;;;;117.25;53.50;;;;;;;;;;5094405;28;20023;-76
2022/11/14 08:45:50;;;;;;;126.25;55.58;;;;;;;;;;5093679;28;20024;-76
2022/11/14 08:48:16;;;;;;;119.68;54.35;;;;;;;;;;5094110;28;20481;-74
2022/11/14 08:50:42;;;;;;;117.63;54.70;;;;;;;;;;5094307;28;20500;-76
2022/11/14 08:53:08;;;;;;;114.30;50.88;;;;;;;;;;5075783;28;20485;-75
2022/11/14 08:55:34;;;;;;;114.78;51.33;;;;;;;;;;5093578;28;20032;-75
2022/11/14 08:58:00;;;;;;;113.30;50.28;;;;;;;;;;5099795;28;20052;-75
2022/11/14 09:00:26;;;;;;;119.32;52.65;;;;;;;;;;5094375;28;20106;-75
2022/11/14 09:02:52;;;;;;;112.97;52.17;;;;;;;;;;5093535;28;20059;-76
2022/11/14 09:05:18;;;;;;;110.25;49.85;;;;;;;;;;5093513;28;20032;-76
2022/11/14 09:07:44;;;;;;;113.75;53.85;;;;;;;;;;5093572;28;20131;-75
2022/11/14 09:10:10;;;;;;;113.30;51.38;;;;;;;;;;5094553;28;20039;-76
2022/11/14 09:12:35;;;;;;;115.35;52.33;;;;;;;;;;5094253;28;20050;-76
2022/11/14 09:15:01;;;;;;;112.05;52.78;;;;;;;;;;5099187;28;20031;-75
2022/11/14 09:17:27;;;;;;;117.72;52.92;;;;;;;;;;5099652;28;20024;-76
2022/11/14 09:19:54;;;;;;;117.32;52.55;;;;;;;;;;5100777;28;20103;-74
2022/11/14 09:22:20;;;;;;;113.78;50.15;;;;;;;;;;5095630;28;20144;-76
2022/11/14 09:24:46;;;;;;;116.00;54.15;;;;;;;;;;5075600;28;20070;-76
2022/11/14 09:27:13;;;;;;;113.50;51.28;;;;;;;;;;5080064;28;20030;-75
2022/11/14 09:29:38;;;;;;;117.63;52.33;;;;;;;;;;5100416;28;20027;-76
2022/11/14 09:32:05;;;;;;;116.90;52.13;;;;;;;;;;5100436;28;20035;-76
2022/11/14 09:34:30;;;;;;;121.00;52.47;;;;;;;;;;5099928;28;20071;-76
2022/11/14 09:36:56;;;;;;;116.57;52.95;;;;;;;;;;5081849;28;20092;-76
2022/11/14 09:39:22;;;;;;;116.57;51.42;;;;;;;;;;5100773;28;20019;-76
2022/11/14 09:42:24;;;;;;;117.25;52.75;;;;;;;;;;5100542;28;20052;-76
2022/11/14 09:44:53;;;;;;;117.85;51.75;;;;;;;;;;4982257;28;20029;-76
2022/11/14 09:47:24;;;;;;;113.28;51.50;;;;;;;;;;5084490;28;20036;-76
2022/11/14 09:49:51;;;;;;;112.05;51.83;;;;;;;;;;5088411;28;20032;-75
2022/11/14 09:52:17;;;;;;;113.07;50.40;;;;;;;;;;5115929;28;20027;-76
2022/11/14 09:54:55;;;;;;;119.18;52.05;;;;;;;;;;5118777;28;20048;-74
2022/11/14 09:57:21;;;;;;;114.85;52.58;;;;;;;;;;5108716;28;20031;-75
2022/11/14 09:59:47;;;;;;;119.95;52.00;;;;;;;;;;5090866;28;20111;-74
2022/11/14 10:02:19;;;;;;;121.93;53.03;;;;;;;;;;5109983;28;20082;-74
2022/11/14 10:04:58;;;;;;;113.97;50.60;;;;;;;;;;5109288;28;20028;-75
2022/11/14 10:07:34;;;;;;;114.25;51.65;;;;;;;;;;5115281;28;20032;-74
2022/11/14 10:10:26;;;;;;;114.32;51.95;;;;;;;;;;5114617;28;20019;-75
2022/11/14 10:12:58;;;;;;;113.43;51.85;;;;;;;;;;5110281;28;20028;-74
2022/11/14 10:15:45;;;;;;;120.72;51.90;;;;;;;;;;5114879;28;20024;-75
2022/11/14 10:18:18;;;;;;;116.10;51.47;;;;;;;;;;5100546;28;20523;-76
2022/11/14 10:20:48;;;;;;;118.25;52.15;;;;;;;;;;5095975;28;20020;-74
2022/11/14 10:23:20;;;;;;;110.47;52.10;;;;;;;;;;5117953;28;20030;-74
2022/11/14 10:25:47;;;;;;;112.22;51.20;;;;;;;;;;5101437;28;20024;-75
2022/11/14 10:28:24;;;;;;;112.22;52.20;;;;;;;;;;5100523;28;20362;-74
2022/11/14 10:31:09;;;;;;;109.40;50.28;;;;;;;;;;5100135;28;20428;-76
2022/11/14 10:33:47;;;;;;;110.15;49.38;;;;;;;;;;5099858;28;20069;-76
2022/11/14 10:36:33;;;;;;;120.45;51.90;;;;;;;;;;5100382;28;20070;-76
2022/11/14 10:39:04;;;;;;;114.65;51.13;;;;;;;;;;5114966;27;20012;-75
2022/11/14 10:41:30;;;;;;;107.28;50.67;;;;;;;;;;5097101;28;20032;-75
2022/11/14 10:43:56;;;;;;;104.68;49.75;;;;;;;;;;5099946;28;20093;-76
2022/11/14 10:46:22;;;;;;;111.38;51.08;;;;;;;;;;5114284;28;20107;-76
2022/11/14 10:48:49;;;;;;;108.82;50.05;;;;;;;;;;5093101;28;20477;-75
2022/11/14 10:51:34;;;;;;;110.47;49.95;;;;;;;;;;5101736;28;20073;-75
2022/11/14 10:54:00;;;;;;;;;;;;;;;;;;5099061;28;20028;-74
2022/11/14 10:56:26;;;;;;;113.13;49.78;;;;;;;;;;5096231;28;19923;-74
2022/11/14 10:58:52;;;;;;;104.78;49.08;;;;;;;;;;5100959;28;20055;-75
2022/11/14 11:01:37;;;;;;;100.32;48.88;;;;;;;;;;5100355;28;20077;-75
2022/11/14 11:04:11;;;;;;;98.03;48.00;;;;;;;;;;5081728;28;20024;-75
2022/11/14 11:06:37;;;;;;;96.72;47.40;;;;;;;;;;5088883;28;20032;-75
2022/11/14 11:11:57;;;;;;;96.35;45.72;;;;;;;;;;5105090;28;20035;-75
2022/11/14 11:14:23;;;;;;;96.93;45.72;;;;;;;;;;5102141;28;20024;-75
2022/11/14 11:16:49;;;;;;;91.18;42.53;;;;;;;;;;5101194;28;20031;-74
2022/11/14 11:19:25;;;;;;;90.57;45.25;;;;;;;;;;5083185;28;20032;-75
2022/11/14 11:21:52;;;;;;;90.93;44.08;;;;;;;;;;5079525;28;20032;-75
2022/11/14 11:24:34;;;;;;;86.93;44.63;;;;;;;;;;5099603;28;20077;-75
2022/11/14 11:27:19;;;;;;;88.18;44.88;;;;;;;;;;5084055;28;20542;-74
2022/11/14 11:29:45;;;;;;;85.22;42.42;;;;;;;;;;5100744;28;20384;-74
2022/11/14 11:32:14;;;;;;;78.53;40.83;;;;;;;;;;5084341;28;20103;-75
2022/11/14 11:34:40;;;;;;;83.97;40.42;;;;;;;;;;5105865;28;20035;-75
2022/11/14 11:37:12;;;;;;;81.40;40.60;;;;;;;;;;5111605;28;20027;-75
2022/11/14 11:39:41;;;;;;;79.88;40.28;;;;;;;;;;5109058;28;20024;-75
2022/11/14 11:42:09;;;;;;;75.93;39.95;;;;;;;;;;5117243;28;20050;-76
2022/11/14 11:44:37;;;;;;;71.63;37.35;;;;;;;;;;5098224;28;20024;-75
2022/11/14 11:47:04;;;;;;;73.03;36.75;;;;;;;;;;5108687;28;20024;-75
2022/11/14 11:49:30;;;;;;;66.20;36.00;;;;;;;;;;5095415;28;20105;-76
2022/11/14 11:52:01;;;;;;;67.60;36.63;;;;;;;;;;5095407;28;20077;-76
2022/11/14 11:54:30;;;;;;;68.15;36.60;;;;;;;;;;5097094;28;20103;-77
2022/11/14 11:56:59;;;;;;;66.05;34.25;;;;;;;;;;5103015;28;20024;-78
2022/11/14 11:59:35;;;;;;;64.82;34.83;;;;;;;;;;5108105;28;20026;-78
2022/11/14 12:02:03;;;;;;;61.55;34.42;;;;;;;;;;5107802;28;20469;-77
2022/11/14 12:04:30;;;;;;;60.88;33.88;;;;;;;;;;5111274;28;20237;-75
2022/11/14 12:07:03;;;;;;;56.47;31.67;;;;;;;;;;5109472;28;20038;-80
2022/11/14 12:09:36;;;;;;;55.20;30.88;;;;;;;;;;5082826;28;20087;-76
2022/11/14 12:12:04;;;;;;;59.20;32.60;;;;;;;;;;5098815;28;20024;-77
2022/11/14 12:14:33;;;;;;;57.75;31.33;;;;;;;;;;5099466;28;20047;-78
2022/11/14 12:17:18;;;;;;;58.20;32.70;;;;;;;;;;5100443;28;20032;-78
2022/11/14 12:19:52;;;;;;;56.17;32.20;;;;;;;;;;5099377;28;20055;-80
2022/11/14 12:22:36;;;;;;;53.42;31.95;;;;;;;;;;5104311;28;20012;-77
2022/11/14 12:25:38;;;;;;;63.30;32.97;;;;;;;;;;5088550;28;20047;-76
2022/11/14 12:28:07;;;;;;;62.83;31.40;;;;;;;;;;4990119;28;20254;-77
2022/11/14 12:30:34;;;;;;;52.80;31.08;;;;;;;;;;5073910;28;20040;-77
2022/11/14 12:33:19;;;;;;;56.70;31.60;;;;;;;;;;5105681;28;20508;-76
2022/11/14 12:35:50;;;;;;;55.17;30.30;;;;;;;;;;5076065;28;20106;-74
2022/11/14 12:38:18;;;;;;;54.70;32.42;;;;;;;;;;5093388;28;20380;-76
2022/11/14 12:40:52;;;;;;;54.33;32.63;;;;;;;;;;5094015;28;20052;-74
2022/11/14 12:43:24;;;;;;;60.42;32.58;;;;;;;;;;5095033;28;20099;-79
2022/11/14 12:45:50;;;;;;;55.90;31.05;;;;;;;;;;5086876;28;20087;-79
2022/11/14 12:48:25;;;;;;;58.35;30.48;;;;;;;;;;5089615;28;20032;-76
2022/11/14 12:50:51;;;;;;;57.33;31.17;;;;;;;;;;5095684;28;20032;-74
2022/11/14 12:53:41;;;;;;;52.33;30.27;;;;;;;;;;5096447;28;20024;-75
2022/11/14 12:56:25;;;;;;;52.70;29.00;;;;;;;;;;5066752;28;20031;-76
2022/11/14 12:58:51;;;;;;;52.85;30.30;;;;;;;;;;5104253;28;20024;-76
2022/11/14 13:01:27;;;;;;;56.97;30.70;;;;;;;;;;5104114;28;20024;-76
2022/11/14 13:04:11;;;;;;;50.78;29.75;;;;;;;;;;5105213;28;20016;-75
2022/11/14 13:06:43;;;;;;;59.42;32.60;;;;;;;;;;5087956;28;20093;-75
2022/11/14 13:09:09;;;;;;;61.55;35.72;;;;;;;;;;5105520;28;20019;-75
2022/11/14 13:23:27;;;;;;;66.47;34.83;;;;;;;;;;5097781;28;20046;-78
2022/11/14 13:26:12;;;;;;;59.08;33.05;;;;;;;;;;5098160;28;20024;-79
2022/11/14 13:28:38;;;;;;;54.88;31.83;;;;;;;;;;5078926;28;20128;-77
2022/11/14 13:31:16;;;;;;;62.38;32.97;;;;;;;;;;5097995;28;20116;-76
2022/11/14 13:33:43;;;;;;;58.75;32.65;;;;;;;;;;5096384;28;20048;-77
2022/11/14 13:36:14;;;;;;;59.00;34.90;;;;;;;;;;5085844;28;20036;-77
2022/11/14 13:38:40;;;;;;;59.05;32.70;;;;;;;;;;5104067;28;20024;-75
2022/11/14 13:41:06;;;;;;;59.30;33.45;;;;;;;;;;5096384;28;20050;-75
2022/11/14 13:43:51;;;;;;;60.67;34.20;;;;;;;;;;5078324;28;20028;-75
2022/11/14 13:46:22;;;;;;;59.80;34.50;;;;;;;;;;5104819;28;20000;-78
2022/11/14 13:49:07;;;;;;;64.80;33.72;;;;;;;;;;5098217;28;20032;-74
2022/11/14 13:51:33;;;;;;;;;;;;;;;;;;5115891;28;20025;-75
2022/11/14 13:53:59;;;;;;;64.25;33.97;;;;;;;;;;5115800;27;19915;-77
2022/11/14 13:56:39;;;;;;;65.28;34.55;;;;;;;;;;5116489;27;20048;-76
2022/11/14 13:59:08;;;;;;;65.38;35.55;;;;;;;;;;5114626;27;20087;-75
2022/11/14 14:01:40;;;;;;;64.72;34.65;;;;;;;;;;5087664;28;20024;-77
2022/11/14 14:04:25;;;;;;;60.67;34.92;;;;;;;;;;5097166;28;20020;-74
2022/11/14 14:07:03;;;;;;;62.83;33.75;;;;;;;;;;5095093;28;20035;-77
2022/11/14 14:09:35;;;;;;;61.25;34.35;;;;;;;;;;5079222;28;20039;-76
2022/11/14 14:12:10;;;;;;;66.50;34.60;;;;;;;;;;5077762;28;20070;-75
2022/11/14 14:14:42;;;;;;;62.22;34.25;;;;;;;;;;5083400;28;20190;-77
2022/11/14 14:17:11;;;;;;;69.35;36.83;;;;;;;;;;5107028;28;20100;-81
2022/11/14 14:19:37;;;;;;;67.53;36.28;;;;;;;;;;5089450;28;20020;-78
2022/11/14 14:22:10;;;;;;;69.80;37.35;;;;;;;;;;5105591;28;20050;-79
2022/11/14 14:25:00;;;;;;;71.20;37.45;;;;;;;;;;5080866;28;20021;-75
2022/11/14 14:27:44;;;;;;;71.47;38.22;;;;;;;;;;5099455;28;20032;-78
2022/11/14 14:30:13;;;;;;;71.93;38.95;;;;;;;;;;5086879;28;20032;-80
2022/11/14 14:32:39;;;;;;;72.97;36.00;;;;;;;;;;5104076;28;20115;-76
2022/11/14 14:35:26;;;;;;;72.82;37.33;;;;;;;;;;5102441;28;20043;-78